createdAt,value
2022-12-04T00:01:11.614Z,28.70
2022-12-04T00:03:38.805Z,29.03
2022-12-04T00:06:07.242Z,28.80
2022-12-04T00:08:34.782Z,29.00
2022-12-04T00:11:01.913Z,30.13
2022-12-04T00:13:29.382Z,29.47
2022-12-04T00:15:56.945Z,29.97
2022-12-04T00:18:23.995Z,38.77
2022-12-04T00:20:51.709Z,32.73
2022-12-04T00:23:20.069Z,33.20
2022-12-04T00:25:49.400Z,31.47
2022-12-04T00:28:18.184Z,32.53
2022-12-04T00:30:46.637Z,29.70
2022-12-04T00:33:14.627Z,27.90
2022-12-04T00:35:42.511Z,29.60
2022-12-04T00:38:10.481Z,29.80
2022-12-04T00:40:37.548Z,27.77
2022-12-04T00:43:04.683Z,28.60
2022-12-04T00:45:32.568Z,26.80
2022-12-04T00:48:00.199Z,28.07
2022-12-04T00:50:27.658Z,27.57
2022-12-04T00:52:54.694Z,29.53
2022-12-04T00:55:21.887Z,29.27
2022-12-04T00:57:49.014Z,29.77
2022-12-04T01:00:16.972Z,28.33
2022-12-04T01:02:44.834Z,28.97
2022-12-04T01:05:12.875Z,28.07
2022-12-04T01:07:40.386Z,26.57
2022-12-04T01:10:11.405Z,25.97
2022-12-04T01:12:38.977Z,28.70
2022-12-04T01:15:06.341Z,29.17
2022-12-04T01:17:33.666Z,27.63
2022-12-04T01:20:00.773Z,26.43
2022-12-04T01:22:28.881Z,28.00
2022-12-04T01:24:56.631Z,27.97
2022-12-04T01:27:23.945Z,24.83
2022-12-04T01:29:51.506Z,26.47
2022-12-04T01:32:19.083Z,26.03
2022-12-04T01:34:46.152Z,26.27
2022-12-04T01:37:13.038Z,25.57
2022-12-04T01:39:39.919Z,26.57
2022-12-04T01:42:06.733Z,26.47
2022-12-04T01:44:33.810Z,27.20
2022-12-04T01:47:01.196Z,26.17
2022-12-04T01:49:31.124Z,25.50
2022-12-04T01:52:01.055Z,27.77
2022-12-04T01:54:29.741Z,26.43
2022-12-04T01:57:26.183Z,25.60
2022-12-04T01:59:57.920Z,28.63
2022-12-04T02:02:27.698Z,25.27
2022-12-04T02:04:54.899Z,24.37
2022-12-04T02:07:21.883Z,25.70
2022-12-04T02:09:54.162Z,25.63
2022-12-04T02:12:35.499Z,24.67
2022-12-04T02:15:05.396Z,23.60
2022-12-04T02:17:39.678Z,23.90
2022-12-04T02:20:12.204Z,26.20
2022-12-04T02:22:57.610Z,25.50
2022-12-04T02:25:38.716Z,26.07
2022-12-04T02:28:05.544Z,25.60
2022-12-04T02:30:34.548Z,24.50
2022-12-04T02:33:07.589Z,24.43
2022-12-04T02:35:37.094Z,25.10
2022-12-04T02:38:12.091Z,25.57
2022-12-04T02:40:43.303Z,25.63
2022-12-04T02:43:15.995Z,25.70
2022-12-04T02:45:54.840Z,24.97
2022-12-04T02:48:22.688Z,24.83
2022-12-04T02:50:51.233Z,24.03
2022-12-04T02:53:19.900Z,23.90
2022-12-04T02:55:58.819Z,23.73
2022-12-04T02:58:37.839Z,23.87
2022-12-04T03:01:19.645Z,23.17
2022-12-04T03:03:54.130Z,24.47
2022-12-04T03:06:22.117Z,24.90
2022-12-04T03:08:53.581Z,24.83
2022-12-04T03:11:20.466Z,25.13
2022-12-04T03:13:50.266Z,24.53
2022-12-04T03:16:23.282Z,24.83
2022-12-04T03:18:53.908Z,23.23
2022-12-04T03:21:22.410Z,24.30
2022-12-04T03:23:52.218Z,23.50
2022-12-04T03:26:24.101Z,22.93
2022-12-04T03:28:50.885Z,23.63
2022-12-04T03:31:20.727Z,22.97
2022-12-04T03:33:48.056Z,22.30
2022-12-04T03:36:24.148Z,23.33
2022-12-04T03:38:57.780Z,23.50
2022-12-04T03:41:49.773Z,21.87
2022-12-04T03:44:25.942Z,23.90
2022-12-04T03:47:13.127Z,21.93
2022-12-04T03:49:52.612Z,23.27
2022-12-04T03:52:23.121Z,23.40
2022-12-04T03:54:51.645Z,23.30
2022-12-04T03:57:20.583Z,22.77
2022-12-04T03:59:55.424Z,22.43
2022-12-04T04:02:24.657Z,24.10
2022-12-04T04:04:53.598Z,24.30
2022-12-04T04:07:24.281Z,24.33
2022-12-04T04:09:53.784Z,23.67
2022-12-04T04:12:22.076Z,21.20
2022-12-04T04:15:13.051Z,23.50
2022-12-04T04:18:00.740Z,25.67
2022-12-04T04:20:49.263Z,25.03
2022-12-04T04:23:36.820Z,23.90
2022-12-04T04:26:04.086Z,24.53
2022-12-04T04:28:34.010Z,24.17
2022-12-04T04:31:19.363Z,25.07
2022-12-04T04:33:48.692Z,23.30
2022-12-04T04:36:21.917Z,24.73
2022-12-04T04:39:00.222Z,24.63
2022-12-04T04:41:41.556Z,22.93
2022-12-04T04:44:11.479Z,22.33
2022-12-04T04:46:40.145Z,24.47
2022-12-04T04:49:09.087Z,24.63
2022-12-04T04:51:36.222Z,23.23
2022-12-04T04:54:05.487Z,22.97
2022-12-04T04:56:32.440Z,21.70
2022-12-04T04:58:59.210Z,22.57
2022-12-04T05:01:28.202Z,21.13
2022-12-04T05:03:55.053Z,20.67
2022-12-04T05:06:22.103Z,21.33
2022-12-04T05:08:49.454Z,21.13
2022-12-04T05:11:17.038Z,21.80
2022-12-04T05:13:43.834Z,20.67
2022-12-04T05:16:12.143Z,21.83
2022-12-04T05:18:39.143Z,21.00
2022-12-04T05:21:06.805Z,21.37
2022-12-04T05:23:33.641Z,20.40
2022-12-04T05:26:04.907Z,19.80
2022-12-04T05:28:31.904Z,20.23
2022-12-04T05:31:00.071Z,20.40
2022-12-04T05:33:26.933Z,19.87
2022-12-04T05:36:00.678Z,21.77
2022-12-04T05:38:27.506Z,18.40
2022-12-04T05:40:54.387Z,30.17
2022-12-04T05:43:21.203Z,38.90
2022-12-04T05:45:48.024Z,25.33
2022-12-04T05:48:15.641Z,19.40
2022-12-04T05:50:42.488Z,19.83
2022-12-04T05:53:09.494Z,19.73
2022-12-04T05:55:36.416Z,19.07
2022-12-04T05:58:03.626Z,20.97
2022-12-04T06:00:30.675Z,20.87
2022-12-04T06:02:57.588Z,19.63
2022-12-04T06:05:24.430Z,19.73
2022-12-04T06:07:51.432Z,19.57
2022-12-04T06:10:18.304Z,21.40
2022-12-04T06:12:45.256Z,20.93
2022-12-04T06:15:12.141Z,20.90
2022-12-04T06:17:38.974Z,20.10
2022-12-04T06:20:11.235Z,19.13
2022-12-04T06:22:38.680Z,21.00
2022-12-04T06:25:05.643Z,20.60
2022-12-04T06:27:32.434Z,20.73
2022-12-04T06:29:59.545Z,20.63
2022-12-04T06:32:26.501Z,20.77
2022-12-04T06:34:54.431Z,21.37
2022-12-04T06:37:22.261Z,19.33
2022-12-04T06:39:49.254Z,18.67
2022-12-04T06:42:16.160Z,20.47
2022-12-04T06:44:43.020Z,21.00
2022-12-04T06:47:10.056Z,20.97
2022-12-04T06:49:36.972Z,25.93
2022-12-04T06:52:04.041Z,23.27
2022-12-04T06:54:30.887Z,27.97
2022-12-04T06:56:57.914Z,25.10
2022-12-04T06:59:24.698Z,23.43
2022-12-04T07:01:51.617Z,20.00
2022-12-04T07:04:18.523Z,21.93
2022-12-04T07:06:45.388Z,21.77
2022-12-04T07:09:15.202Z,19.37
2022-12-04T07:11:42.668Z,17.27
2022-12-04T07:14:09.756Z,16.37
2022-12-04T07:16:40.855Z,18.90
2022-12-04T07:19:09.481Z,17.50
2022-12-04T07:21:36.305Z,15.13
2022-12-04T07:24:03.339Z,15.27
2022-12-04T07:26:30.646Z,14.73
2022-12-04T07:28:58.232Z,13.70
2022-12-04T07:31:25.924Z,15.53
2022-12-04T07:33:54.195Z,14.20
2022-12-04T07:36:22.501Z,14.60
2022-12-04T07:38:49.767Z,15.83
2022-12-04T07:41:17.034Z,13.50
2022-12-04T07:43:43.979Z,14.93
2022-12-04T07:46:12.797Z,14.17
2022-12-04T07:48:40.063Z,14.60
2022-12-04T07:51:11.950Z,16.07
2022-12-04T07:53:39.030Z,15.17
2022-12-04T07:56:06.417Z,14.77
2022-12-04T07:58:34.000Z,15.03
2022-12-04T08:01:27.502Z,17.50
2022-12-04T08:03:56.089Z,16.00
2022-12-04T08:06:24.399Z,17.43
2022-12-04T08:08:52.098Z,26.53
2022-12-04T08:11:20.498Z,21.97
2022-12-04T08:13:47.403Z,17.13
2022-12-04T08:16:15.163Z,22.57
2022-12-04T08:18:46.967Z,78.33
2022-12-04T08:21:15.030Z,25.50
2022-12-04T08:23:42.675Z,80.10
2022-12-04T08:26:10.066Z,72.00
2022-12-04T08:28:37.331Z,69.00
2022-12-04T08:31:05.112Z,19.67
2022-12-04T08:33:32.150Z,18.10
2022-12-04T08:35:59.040Z,17.33
2022-12-04T08:38:26.047Z,20.13
2022-12-04T08:40:52.839Z,36.17
2022-12-04T08:43:19.655Z,54.63
2022-12-04T08:45:54.840Z,45.17
2022-12-04T08:48:21.715Z,23.27
2022-12-04T08:50:48.496Z,21.20
2022-12-04T08:53:15.410Z,17.50
2022-12-04T08:55:42.164Z,17.10
2022-12-04T08:58:09.351Z,14.73
2022-12-04T09:00:36.227Z,16.27
2022-12-04T09:03:03.036Z,12.50
2022-12-04T09:05:30.476Z,12.23
2022-12-04T09:07:57.323Z,14.57
2022-12-04T09:10:24.723Z,13.40
2022-12-04T09:12:51.477Z,13.70
2022-12-04T09:15:18.364Z,13.10
2022-12-04T09:17:45.165Z,12.43
2022-12-04T09:20:12.119Z,12.73
2022-12-04T09:23:02.205Z,13.20
2022-12-04T09:25:26.368Z,13.00
2022-12-04T09:27:53.233Z,13.37
2022-12-04T09:30:20.206Z,12.90
2022-12-04T09:32:47.357Z,13.83
2022-12-04T09:35:14.670Z,12.73
2022-12-04T09:37:41.874Z,13.03
2022-12-04T09:40:09.352Z,12.67
2022-12-04T09:42:51.345Z,14.77
2022-12-04T09:45:20.996Z,25.47
2022-12-04T09:47:50.590Z,18.57
2022-12-04T09:50:36.108Z,13.80
2022-12-04T09:53:15.730Z,16.33
2022-12-04T09:55:50.095Z,15.83
2022-12-04T09:58:21.914Z,14.67
2022-12-04T10:00:50.995Z,13.83
2022-12-04T10:03:19.361Z,13.20
2022-12-04T10:06:04.968Z,13.53
2022-12-04T10:08:45.067Z,13.10
2022-12-04T10:11:32.978Z,12.90
2022-12-04T10:14:20.134Z,14.03
2022-12-04T10:16:56.040Z,30.63
2022-12-04T10:19:37.414Z,20.97
2022-12-04T10:22:39.513Z,24.70
2022-12-04T10:25:12.346Z,14.23
2022-12-04T10:27:44.978Z,14.53
2022-12-04T10:30:29.109Z,15.17
2022-12-04T10:33:01.405Z,13.17
2022-12-04T10:35:29.715Z,14.73
2022-12-04T10:38:04.377Z,13.37
2022-12-04T10:40:49.297Z,13.00
2022-12-04T10:43:26.915Z,12.17
2022-12-04T10:45:53.811Z,13.00
2022-12-04T10:48:26.691Z,12.93
2022-12-04T10:50:53.511Z,15.40
2022-12-04T10:53:25.516Z,14.63
2022-12-04T10:55:52.361Z,13.60
2022-12-04T10:58:20.776Z,13.23
2022-12-04T11:01:01.576Z,16.00
2022-12-04T11:03:29.232Z,14.63
2022-12-04T11:06:01.031Z,14.60
2022-12-04T11:08:50.122Z,18.70
2022-12-04T11:11:22.636Z,22.30
2022-12-04T11:13:49.574Z,22.43
2022-12-04T11:16:49.874Z,22.97
2022-12-04T11:19:24.560Z,22.17
2022-12-04T11:21:52.909Z,25.37
2022-12-04T11:24:21.583Z,27.53
2022-12-04T11:26:48.865Z,23.33
2022-12-04T11:29:17.829Z,27.00
2022-12-04T11:31:52.612Z,27.67
2022-12-04T11:34:22.430Z,29.83
2022-12-04T11:36:54.502Z,26.47
2022-12-04T11:39:36.322Z,25.93
2022-12-04T11:42:16.693Z,27.37
2022-12-04T11:44:55.735Z,21.93
2022-12-04T11:47:23.954Z,21.97
2022-12-04T11:50:03.700Z,23.23
2022-12-04T11:52:43.436Z,24.63
2022-12-04T11:55:16.093Z,22.13
2022-12-04T11:57:46.642Z,21.53
2022-12-04T12:00:20.868Z,22.10
2022-12-04T12:02:59.867Z,23.23
2022-12-04T12:05:33.178Z,23.73
2022-12-04T12:08:05.767Z,26.13
2022-12-04T12:10:44.846Z,29.27
2022-12-04T12:13:26.868Z,25.07
2022-12-04T12:15:59.993Z,30.20
2022-12-04T12:18:45.496Z,33.90
2022-12-04T12:21:21.072Z,28.57
2022-12-04T12:24:03.216Z,34.10
2022-12-04T12:26:36.166Z,49.77
2022-12-04T12:29:16.044Z,35.97
2022-12-04T12:32:06.769Z,31.53
2022-12-04T12:34:44.580Z,31.13
2022-12-04T12:37:11.453Z,52.03
2022-12-04T12:39:45.356Z,31.57
2022-12-04T12:42:21.192Z,30.30
2022-12-04T12:44:56.326Z,32.10
2022-12-04T12:47:25.734Z,26.63
2022-12-04T12:49:55.699Z,30.43
2022-12-04T12:52:30.681Z,30.27
2022-12-04T12:55:16.213Z,30.73
2022-12-04T12:57:56.688Z,30.33
2022-12-04T13:00:24.368Z,30.97
2022-12-04T13:03:14.274Z,30.57
2022-12-04T13:05:43.510Z,32.37
2022-12-04T13:08:16.583Z,31.70
2022-12-04T13:10:49.652Z,32.07
2022-12-04T13:13:27.097Z,24.53
2022-12-04T13:15:56.687Z,24.23
2022-12-04T13:18:27.664Z,25.67
2022-12-04T13:20:56.823Z,25.40
2022-12-04T13:23:35.535Z,28.33
2022-12-04T13:26:11.574Z,30.87
2022-12-04T13:28:38.505Z,32.17
2022-12-04T13:31:41.054Z,28.87
2022-12-04T13:34:16.545Z,25.60
2022-12-04T13:37:06.712Z,28.07
2022-12-04T13:39:34.198Z,29.53
2022-12-04T13:42:02.146Z,27.87
2022-12-04T13:44:29.870Z,25.73
2022-12-04T13:46:58.657Z,22.47
2022-12-04T13:49:32.860Z,22.50
2022-12-04T13:52:02.425Z,22.27
2022-12-04T13:54:33.829Z,22.97
2022-12-04T13:57:12.666Z,22.90
2022-12-04T13:59:39.900Z,26.70
2022-12-04T14:02:28.074Z,30.17
2022-12-04T14:04:55.097Z,30.57
2022-12-04T14:07:27.598Z,31.20
2022-12-04T14:09:55.639Z,39.20
2022-12-04T14:12:30.402Z,34.70
2022-12-04T14:14:57.702Z,31.83
2022-12-04T14:17:27.258Z,31.73
2022-12-04T14:19:55.502Z,33.67
2022-12-04T14:22:26.396Z,37.47
2022-12-04T14:24:53.428Z,37.43
2022-12-04T14:27:39.314Z,36.00
2022-12-04T14:30:15.763Z,32.37
2022-12-04T14:32:43.768Z,36.27
2022-12-04T14:35:21.759Z,35.30
2022-12-04T14:37:54.518Z,29.60
2022-12-04T14:40:25.032Z,28.97
2022-12-04T14:42:52.234Z,29.37
2022-12-04T14:45:22.005Z,32.77
2022-12-04T14:48:07.334Z,31.77
2022-12-04T14:50:43.449Z,36.80
2022-12-04T14:53:26.766Z,40.97
2022-12-04T14:56:12.457Z,40.43
2022-12-04T14:58:39.531Z,38.37
2022-12-04T15:01:28.670Z,40.83
2022-12-04T15:03:58.263Z,31.40
2022-12-04T15:06:26.430Z,25.53
2022-12-04T15:09:14.688Z,26.80
2022-12-04T15:12:10.283Z,27.10
2022-12-04T15:14:50.225Z,25.70
2022-12-04T15:17:18.180Z,53.50
2022-12-04T15:19:45.010Z,39.57
2022-12-04T15:22:23.905Z,34.20
2022-12-04T15:24:51.165Z,29.53
2022-12-04T15:27:19.205Z,41.03
2022-12-04T15:29:51.573Z,37.90
2022-12-04T15:32:19.936Z,26.30
2022-12-04T15:34:48.860Z,27.83
2022-12-04T15:37:31.495Z,26.70
2022-12-04T15:39:59.214Z,54.20
2022-12-04T15:42:30.034Z,29.27
2022-12-04T15:45:01.791Z,27.87
2022-12-04T15:47:30.014Z,27.07
2022-12-04T15:50:07.983Z,27.57
2022-12-04T15:52:35.552Z,27.10
2022-12-04T15:55:05.758Z,25.20
2022-12-04T15:57:40.261Z,26.27
2022-12-04T16:00:22.108Z,26.63
2022-12-04T16:02:49.000Z,26.63
2022-12-04T16:05:21.908Z,26.07
2022-12-04T16:07:50.057Z,25.17
2022-12-04T16:10:35.855Z,26.00
2022-12-04T16:13:03.996Z,45.43
2022-12-04T16:15:41.334Z,39.57
2022-12-04T16:18:10.979Z,26.97
2022-12-04T16:20:38.678Z,24.33
2022-12-04T16:23:06.051Z,25.43
2022-12-04T16:25:33.320Z,26.10
2022-12-04T16:28:00.919Z,26.30
2022-12-04T16:30:28.679Z,27.27
2022-12-04T16:32:55.522Z,24.03
2022-12-04T16:35:22.330Z,25.60
2022-12-04T16:37:49.186Z,34.87
2022-12-04T16:40:16.088Z,93.90
2022-12-04T16:42:43.465Z,62.40
2022-12-04T16:45:29.681Z,34.10
2022-12-04T16:47:58.219Z,26.80
2022-12-04T16:50:25.555Z,29.10
2022-12-04T16:52:52.617Z,26.43
2022-12-04T16:55:31.668Z,25.40
2022-12-04T16:57:58.478Z,25.57
2022-12-04T17:00:25.291Z,25.57
2022-12-04T17:02:52.220Z,24.63
2022-12-04T17:05:24.382Z,25.63
2022-12-04T17:07:51.413Z,35.57
2022-12-04T17:10:23.548Z,43.07
2022-12-04T17:12:53.814Z,22.20
2022-12-04T17:15:20.965Z,31.83
2022-12-04T17:17:47.841Z,23.40
2022-12-04T17:20:16.072Z,21.87
2022-12-04T17:22:43.027Z,24.53
2022-12-04T17:25:10.283Z,26.93
2022-12-04T17:27:37.463Z,25.27
2022-12-04T17:30:05.503Z,29.07
2022-12-04T17:32:32.797Z,41.10
2022-12-04T17:34:59.731Z,48.73
2022-12-04T17:37:26.717Z,52.90
2022-12-04T17:39:53.485Z,31.60
2022-12-04T17:42:20.398Z,28.53
2022-12-04T17:44:47.439Z,24.73
2022-12-04T17:47:14.437Z,25.83
2022-12-04T17:49:41.336Z,25.30
2022-12-04T17:52:08.178Z,25.10
2022-12-04T17:54:35.069Z,20.27
2022-12-04T17:57:01.899Z,24.20
2022-12-04T17:59:28.887Z,23.83
2022-12-04T18:01:56.142Z,25.67
2022-12-04T18:04:22.983Z,24.70
2022-12-04T18:06:49.801Z,29.23
2022-12-04T18:09:17.275Z,29.33
2022-12-04T18:11:45.835Z,43.03
2022-12-04T18:14:14.851Z,36.60
2022-12-04T18:16:43.753Z,31.30
2022-12-04T18:19:12.695Z,47.43
2022-12-04T18:21:39.703Z,48.53
2022-12-04T18:24:07.018Z,22.90
2022-12-04T18:26:35.158Z,24.63
2022-12-04T18:29:02.325Z,24.67
2022-12-04T18:31:29.856Z,24.00
2022-12-04T18:33:57.402Z,23.60
2022-12-04T18:36:26.288Z,22.40
2022-12-04T18:38:58.635Z,21.07
2022-12-04T18:41:26.400Z,21.50
2022-12-04T18:43:54.063Z,23.03
2022-12-04T18:46:21.564Z,22.00
2022-12-04T18:48:49.891Z,22.77
2022-12-04T18:51:19.700Z,21.90
2022-12-04T18:53:47.557Z,25.70
2022-12-04T18:56:14.848Z,34.60
2022-12-04T18:58:43.354Z,31.57
2022-12-04T19:01:11.764Z,42.27
2022-12-04T19:03:38.672Z,44.57
2022-12-04T19:06:06.407Z,26.00
2022-12-04T19:08:36.643Z,27.73
2022-12-04T19:11:07.483Z,26.20
2022-12-04T19:13:34.429Z,23.83
2022-12-04T19:16:02.315Z,22.23
2022-12-04T19:18:30.628Z,23.30
2022-12-04T19:20:58.047Z,22.43
2022-12-04T19:23:25.160Z,23.03
2022-12-04T19:25:56.583Z,21.17
2022-12-04T19:28:24.651Z,23.97
2022-12-04T19:30:51.792Z,22.40
2022-12-04T19:33:18.579Z,27.00
2022-12-04T19:35:55.851Z,30.03
2022-12-04T19:38:23.523Z,35.47
2022-12-04T19:40:50.678Z,43.97
2022-12-04T19:43:17.488Z,38.77
2022-12-04T19:45:48.432Z,38.57
2022-12-04T19:48:15.352Z,29.30
2022-12-04T19:50:42.151Z,27.73
2022-12-04T19:53:09.138Z,33.40
2022-12-04T19:55:36.755Z,27.10
2022-12-04T19:58:04.313Z,27.83
2022-12-04T20:00:31.895Z,21.47
2022-12-04T20:02:59.397Z,21.50
2022-12-04T20:05:26.940Z,22.60
2022-12-04T20:07:55.572Z,25.23
2022-12-04T20:10:22.598Z,26.43
2022-12-04T20:12:49.442Z,31.67
2022-12-04T20:15:16.257Z,26.30
2022-12-04T20:17:43.024Z,30.13
2022-12-04T20:20:09.974Z,27.27
2022-12-04T20:22:37.150Z,24.37
2022-12-04T20:25:04.258Z,23.87
2022-12-04T20:27:31.690Z,25.30
2022-12-04T20:29:58.817Z,30.37
2022-12-04T20:32:26.902Z,24.90
2022-12-04T20:34:53.734Z,26.00
2022-12-04T20:37:21.212Z,26.37
2022-12-04T20:39:48.214Z,25.67
2022-12-04T20:42:16.114Z,24.23
2022-12-04T20:44:43.310Z,27.70
2022-12-04T20:47:10.074Z,22.33
2022-12-04T20:49:37.515Z,22.03
2022-12-04T20:52:05.075Z,22.00
2022-12-04T20:54:37.847Z,24.73
2022-12-04T20:57:09.226Z,24.97
2022-12-04T20:59:36.436Z,29.50
2022-12-04T21:02:04.013Z,33.00
2022-12-04T21:04:31.066Z,24.60
2022-12-04T21:06:59.279Z,20.50
2022-12-04T21:09:26.847Z,20.47
2022-12-04T21:11:55.567Z,22.93
2022-12-04T21:14:42.477Z,23.03
2022-12-04T21:17:12.356Z,24.33
2022-12-04T21:19:39.741Z,20.33
2022-12-04T21:22:06.649Z,24.67
2022-12-04T21:24:38.756Z,22.80
2022-12-04T21:27:07.127Z,20.07
2022-12-04T21:29:35.007Z,21.17
2022-12-04T21:32:02.770Z,75.23
2022-12-04T21:34:29.812Z,37.70
2022-12-04T21:36:57.352Z,74.43
2022-12-04T21:39:25.455Z,31.60
2022-12-04T21:42:11.134Z,30.60
2022-12-04T21:44:38.484Z,28.00
2022-12-04T21:47:05.359Z,22.90
2022-12-04T21:49:32.554Z,22.90
2022-12-04T21:51:59.728Z,23.33
2022-12-04T21:54:27.797Z,23.67
2022-12-04T21:56:55.581Z,20.50
2022-12-04T21:59:23.043Z,25.83
2022-12-04T22:01:49.968Z,24.33
2022-12-04T22:04:17.004Z,25.37
2022-12-04T22:06:44.398Z,25.53
2022-12-04T22:09:11.664Z,23.67
2022-12-04T22:11:39.248Z,21.43
2022-12-04T22:14:05.982Z,21.50
2022-12-04T22:16:38.327Z,55.90
2022-12-04T22:19:08.493Z,32.17
2022-12-04T22:21:35.308Z,28.77
2022-12-04T22:24:03.435Z,22.27
2022-12-04T22:26:31.673Z,23.33
2022-12-04T22:28:59.018Z,23.20
2022-12-04T22:31:26.666Z,19.13
2022-12-04T22:33:55.242Z,23.23
2022-12-04T22:36:23.879Z,21.63
2022-12-04T22:39:09.695Z,21.53
2022-12-04T22:41:37.530Z,21.50
2022-12-04T22:44:04.429Z,21.97
2022-12-04T22:46:31.869Z,21.27
2022-12-04T22:48:59.402Z,19.73
2022-12-04T22:51:27.493Z,21.20
2022-12-04T22:53:56.601Z,21.70
2022-12-04T22:56:23.876Z,19.60
2022-12-04T22:58:51.333Z,20.57
2022-12-04T23:01:25.399Z,20.63
2022-12-04T23:03:52.940Z,18.40
2022-12-04T23:06:20.919Z,20.37
2022-12-04T23:08:48.214Z,18.80
2022-12-04T23:11:17.123Z,19.60
2022-12-04T23:13:44.511Z,20.57
2022-12-04T23:16:15.566Z,20.07
2022-12-04T23:18:45.323Z,19.10
2022-12-04T23:21:12.967Z,47.97
2022-12-04T23:23:41.002Z,55.17
2022-12-04T23:26:09.224Z,31.70
2022-12-04T23:28:36.219Z,23.83
2022-12-04T23:31:04.059Z,22.67
2022-12-04T23:33:31.809Z,22.47
2022-12-04T23:36:00.406Z,23.30
2022-12-04T23:38:27.918Z,19.70
2022-12-04T23:41:20.913Z,18.33
2022-12-04T23:43:48.438Z,19.13
2022-12-04T23:46:16.685Z,17.80
2022-12-04T23:48:44.522Z,17.93
2022-12-04T23:51:12.204Z,18.43
2022-12-04T23:53:39.302Z,17.47
2022-12-04T23:56:11.120Z,17.37
2022-12-04T23:58:38.373Z,16.47
